EDT,Max TemperatureF,Mean TemperatureF,Min TemperatureF,Max Dew PointF,MeanDew PointF,Min DewpointF,Max Humidity, Mean Humidity, Min Humidity, Max Sea Level PressureIn, Mean Sea Level PressureIn, Min Sea Level PressureIn, Max VisibilityMiles, Mean VisibilityMiles, Min VisibilityMiles, Max Wind SpeedMPH, Mean Wind SpeedMPH, Max Gust SpeedMPH,PrecipitationIn, CloudCover, Events, WindDirDegrees
2012-8-1,87,76,65,70,66,63,97,74,51,29.93,29.88,29.82,10,8,2,21,2,26,0.42,2,Rain,200
2012-8-2,90,77,64,70,66,63,100,74,47,29.93,29.90,29.87,10,6,2,6,1,9,0.01,1,,93
2012-8-3,90,79,68,73,69,66,97,76,55,30.07,29.99,29.93,10,6,0,13,2,17,0.00,0,Fog,121
2012-8-4,91,80,69,72,69,66,97,72,47,30.14,30.11,30.06,10,8,2,18,5,25,0.00,1,,172
2012-8-5,92,83,73,74,71,68,88,70,52,30.13,30.07,30.02,10,9,1,32,6,39,0.53,4,Rain,198
2012-8-6,88,78,67,71,67,61,93,68,42,30.10,30.05,29.99,10,10,8,10,3,13,T,2,Rain,272
2012-8-7,85,74,63,68,64,61,93,71,48,30.04,30.00,29.96,10,8,2,8,1,14,0.00,0,,88
2012-8-8,90,79,67,69,65,59,93,65,37,30.01,29.97,29.93,10,8,2,9,2,17,0.00,0,,135
2012-8-9,91,78,65,68,66,63,93,67,41,29.98,29.92,29.83,10,7,2,24,4,33,0.19,2,Rain,168
2012-8-10,84,76,67,69,67,64,100,81,61,29.85,29.79,29.70,10,8,2,22,4,30,0.46,6,Rain,134
2012-8-11,84,75,66,66,61,56,100,70,40,29.95,29.86,29.78,10,10,9,15,4,18,0.00,3,,270
2012-8-12,83,72,60,61,59,57,90,67,43,30.03,29.98,29.95,10,10,10,13,4,33,0.00,3,,287
2012-8-13,85,72,59,63,60,57,93,67,40,30.07,30.01,29.95,10,10,4,9,2,14,0.00,3,,112
2012-8-14,84,75,66,70,67,63,93,74,55,29.96,29.91,29.83,10,7,1,14,2,17,0.26,5,Rain-Thunderstorm,214
2012-8-15,81,72,63,67,63,61,100,77,54,29.95,29.91,29.87,10,7,0,12,3,25,0.01,1,Fog,291
2012-8-16,86,72,58,64,60,56,97,67,37,30.02,29.97,29.90,10,9,4,13,4,16,0.00,0,,269
2012-8-17,89,75,61,70,64,59,97,68,39,29.93,29.87,29.81,10,6,1,14,3,20,0.44,4,Rain,332
2012-8-18,81,71,61,67,58,51,93,65,36,29.96,29.92,29.89,10,10,4,12,4,16,0.00,2,,332
2012-8-19,71,66,60,64,61,57,93,83,73,29.99,29.95,29.91,10,9,2,10,2,14,0.11,7,Rain,41
2012-8-20,80,70,60,64,62,58,100,80,60,29.99,29.92,29.86,10,7,1,20,2,24,0.22,5,Rain,131
2012-8-21,80,70,59,63,59,53,100,70,39,30.12,30.05,29.99,10,5,0,14,2,20,0.00,2,Fog,43
2012-8-22,84,71,58,60,58,54,97,70,42,30.17,30.13,30.10,10,8,1,12,2,17,0.00,1,,97
2012-8-23,86,72,57,63,59,55,100,69,37,30.19,30.15,30.11,10,8,2,8,2,12,0.00,0,,48
2012-8-24,85,74,62,65,63,60,93,69,44,30.20,30.16,30.13,10,8,3,8,1,12,0.00,0,,44
2012-8-25,82,75,67,66,63,53,90,67,43,30.22,30.19,30.16,10,8,3,14,5,17,T,4,Rain,49
2012-8-26,77,73,69,70,67,64,97,88,79,30.24,30.19,30.16,10,10,5,14,5,21,0.15,8,Rain,79
2012-8-27,88,78,67,68,66,60,97,69,40,30.17,30.08,29.95,10,10,6,9,4,15,0.00,4,,181
2012-8-28,87,78,68,68,62,55,84,60,35,29.99,29.95,29.92,10,10,9,15,6,21,0.02,3,Rain,297
2012-8-29,83,71,58,60,58,54,93,65,37,30.05,30.00,29.96,10,10,8,10,2,20,0.00,1,,324
2012-8-30,85,72,58,62,59,56,93,67,40,30.15,30.10,30.05,10,9,5,9,1,20,0.00,1,,69
2012-8-31,94,76,58,66,60,53,93,60,26,30.14,30.08,30.01,10,7,2,17,5,26,0.00,0,,255